createdAt,value
2017-03-13T19:15:17.433Z,23.17
2017-03-13T19:16:19.218Z,23.13
2017-03-13T19:17:21.279Z,23.12
2017-03-13T19:18:23.170Z,20.70
2017-03-13T19:19:25.248Z,-15.92
2017-03-13T19:20:27.096Z,20.70
2017-03-13T19:21:29.005Z,20.06
2017-03-13T19:22:31.019Z,20.86
2017-03-13T19:23:32.856Z,19.90
2017-03-13T19:24:34.746Z,20.54
2017-03-13T19:25:36.514Z,19.58
2017-03-13T19:26:38.163Z,20.22
2017-03-13T19:27:39.923Z,20.37
2017-03-13T19:28:41.518Z,20.06
2017-03-13T19:29:50.070Z,23.56
2017-03-13T19:30:51.668Z,20.40
2017-03-13T19:51:25.011Z,22.35
2017-03-13T19:52:26.809Z,22.39
2017-03-13T19:53:29.169Z,22.36
2017-03-13T19:54:31.159Z,22.30
2017-03-13T19:55:33.869Z,22.36
2017-03-13T19:56:35.730Z,22.35
2017-03-13T19:57:37.445Z,22.23
2017-03-13T19:58:39.587Z,22.23
2017-03-13T20:00:55.056Z,22.29
2017-03-13T20:01:56.986Z,22.30
2017-03-13T20:03:01.045Z,22.26
2017-03-13T20:04:02.796Z,22.23
2017-03-13T20:05:05.694Z,22.30
2017-03-13T20:06:12.104Z,22.22
2017-03-13T20:11:23.629Z,22.26
2017-03-13T20:12:25.066Z,22.30
2017-03-13T20:13:27.728Z,22.29
2017-03-13T20:14:32.133Z,22.32
2017-03-13T20:15:33.680Z,-15.92
2017-03-13T20:16:35.208Z,25.41
2017-03-13T20:17:36.812Z,24.45
2017-03-13T20:18:38.463Z,24.45
2017-03-13T20:19:40.174Z,24.45
2017-03-13T20:20:41.693Z,24.30
2017-03-13T20:21:43.227Z,24.30
2017-03-13T20:22:44.983Z,24.30
2017-03-13T20:23:46.653Z,24.45
2017-03-13T20:24:48.311Z,24.45
2017-03-13T20:25:49.924Z,24.61
2017-03-13T20:26:53.008Z,24.45
2017-03-13T20:27:57.274Z,24.45
2017-03-13T20:29:01.355Z,24.45
2017-03-13T20:30:03.192Z,24.61
2017-03-13T20:31:07.220Z,24.45
2017-03-13T20:32:09.806Z,24.61
2017-03-13T20:33:12.759Z,24.61
2017-03-13T20:34:16.150Z,24.30
2017-03-13T20:35:17.993Z,24.30
2017-03-13T20:36:19.772Z,24.45
2017-03-13T20:37:23.338Z,24.30
2017-03-13T20:38:26.029Z,24.61
2017-03-13T20:39:27.806Z,24.45
2017-03-13T20:40:29.795Z,24.61
2017-03-13T20:41:32.591Z,24.61
2017-03-13T20:42:36.933Z,24.30
2017-03-13T20:43:39.247Z,24.61
2017-03-13T20:44:41.526Z,24.78
2017-03-13T20:45:43.263Z,24.61
2017-03-13T20:46:47.452Z,24.61
2017-03-13T20:47:52.208Z,24.78
2017-03-13T20:48:53.982Z,24.78
2017-03-13T20:49:58.241Z,24.78
2017-03-13T20:51:03.164Z,24.94
2017-03-13T20:52:05.113Z,24.94
2017-03-13T20:53:07.991Z,24.94
2017-03-13T20:54:12.010Z,25.10
2017-03-13T20:55:15.038Z,24.94
2017-03-13T20:56:18.270Z,24.94
2017-03-13T20:57:22.558Z,25.10
2017-03-13T20:58:24.381Z,25.25
2017-03-13T20:59:27.345Z,25.41
2017-03-13T21:00:29.340Z,25.41
2017-03-13T21:01:31.168Z,25.57
2017-03-13T21:02:33.086Z,25.25
2017-03-13T21:03:34.847Z,25.10
2017-03-13T21:04:36.791Z,25.25
2017-03-13T21:05:38.493Z,25.25
2017-03-13T21:06:40.582Z,25.41
2017-03-13T21:07:42.307Z,25.57
2017-03-13T21:08:44.117Z,25.41
2017-03-13T21:09:46.070Z,25.57
2017-03-13T21:10:47.832Z,25.73
2017-03-13T21:11:49.791Z,25.73
2017-03-13T21:12:51.617Z,25.57
2017-03-13T21:13:53.362Z,25.57
2017-03-13T21:14:55.101Z,25.57
2017-03-13T21:15:56.785Z,25.57
2017-03-13T21:16:58.562Z,25.57
2017-03-13T21:18:00.294Z,25.41
2017-03-13T21:19:01.948Z,25.57
2017-03-13T21:20:04.468Z,25.41
2017-03-13T21:21:06.213Z,25.57
2017-03-13T21:22:08.075Z,25.57
2017-03-13T21:23:09.676Z,25.57
2017-03-13T21:24:11.333Z,25.41
2017-03-13T21:25:14.147Z,25.57
2017-03-13T21:26:15.636Z,25.57
2017-03-13T21:27:17.203Z,25.57
2017-03-13T21:28:20.290Z,25.41
2017-03-13T21:29:22.811Z,25.41
2017-03-13T21:30:25.486Z,25.41
2017-03-13T21:31:27.147Z,25.57
2017-03-13T21:32:28.922Z,25.41
2017-03-13T21:33:32.337Z,25.41
2017-03-13T21:34:33.977Z,25.57
2017-03-13T21:35:36.998Z,25.57
2017-03-13T21:36:39.815Z,25.57
2017-03-13T21:37:41.727Z,25.57
2017-03-13T21:38:43.432Z,25.57
2017-03-13T21:39:45.132Z,25.57
2017-03-13T21:40:46.787Z,25.73
2017-03-13T21:41:49.076Z,25.57
2017-03-13T21:42:50.885Z,25.73
2017-03-13T21:44:31.876Z,21.66
2017-03-13T21:45:33.452Z,25.35
2017-03-13T21:46:35.064Z,25.51
2017-03-13T21:47:36.631Z,25.35
2017-03-13T21:48:38.476Z,25.66
2017-03-13T21:49:40.219Z,25.35
2017-03-13T21:50:41.885Z,25.66
2017-03-13T21:51:43.519Z,25.35
2017-03-13T21:52:45.136Z,25.35
2017-03-13T21:53:46.966Z,25.51
2017-03-13T21:54:48.710Z,25.51
2017-03-13T21:55:50.958Z,25.35
2017-03-13T21:56:53.008Z,25.35
2017-03-13T21:57:54.757Z,25.35
2017-03-13T21:58:56.659Z,25.82
2017-03-13T21:59:58.492Z,25.35
2017-03-13T22:01:00.391Z,25.82
2017-03-13T22:02:02.157Z,25.35
2017-03-13T22:03:03.678Z,-15.92
2017-03-13T22:04:05.613Z,-15.92
2017-03-13T22:05:07.435Z,-15.92
2017-03-13T22:06:09.243Z,-15.92
2017-03-13T22:07:10.917Z,-15.92
2017-03-13T22:08:12.633Z,-15.92
2017-03-13T22:09:14.260Z,-15.92
2017-03-13T22:10:16.025Z,-15.92
2017-03-13T22:11:17.949Z,-15.92
2017-03-13T22:12:19.576Z,-15.92
2017-03-13T22:13:21.765Z,-15.92
2017-03-13T22:14:23.382Z,-15.92
2017-03-13T22:15:25.026Z,-15.92
2017-03-13T22:17:06.470Z,21.39
2017-03-13T22:18:08.139Z,21.33
2017-03-13T22:19:09.709Z,21.36
2017-03-13T22:20:11.847Z,21.48
2017-03-13T22:21:14.241Z,21.43
2017-03-13T22:22:15.958Z,21.45
2017-03-13T22:23:18.257Z,21.45
2017-03-13T22:24:20.020Z,21.52
2017-03-13T22:25:22.024Z,21.52
2017-03-13T22:26:24.299Z,21.50
2017-03-13T22:27:26.570Z,21.46
2017-03-13T22:28:28.345Z,21.37
2017-03-13T22:29:30.197Z,21.45
2017-03-13T22:30:31.867Z,21.43
2017-03-13T22:31:33.627Z,21.43
2017-03-13T22:32:35.368Z,21.45
2017-03-13T22:33:37.085Z,21.40
2017-03-13T22:34:38.786Z,21.46
2017-03-13T22:35:40.381Z,21.39
2017-03-13T22:36:42.244Z,21.37
2017-03-13T22:37:43.926Z,21.39
2017-03-13T22:38:45.605Z,21.45
2017-03-13T22:39:47.413Z,21.40
2017-03-13T22:40:49.091Z,21.42
2017-03-13T22:41:50.810Z,21.42
2017-03-13T22:42:52.459Z,21.37
2017-03-13T22:43:54.104Z,21.45
2017-03-13T22:44:55.656Z,21.45
2017-03-13T22:45:57.285Z,21.37
2017-03-13T22:46:59.004Z,21.39
2017-03-13T22:48:00.904Z,21.35
2017-03-13T22:49:02.546Z,21.37
2017-03-13T22:50:04.255Z,21.37
2017-03-13T22:51:05.889Z,21.35
2017-03-13T22:52:07.583Z,21.30
2017-03-13T22:53:09.550Z,21.29
2017-03-13T22:54:11.280Z,21.30
2017-03-13T22:55:13.004Z,21.33
2017-03-13T22:56:14.636Z,21.32
2017-03-13T22:57:16.401Z,21.33
2017-03-13T22:58:18.045Z,21.25
2017-03-13T22:59:19.605Z,21.24
2017-03-13T23:00:21.333Z,21.32
2017-03-13T23:01:22.937Z,21.33
2017-03-13T23:02:24.578Z,21.32
2017-03-13T23:03:26.161Z,21.30
2017-03-13T23:04:27.774Z,21.21
2017-03-13T23:05:29.429Z,21.24
2017-03-13T23:06:30.928Z,21.27
2017-03-13T23:07:32.609Z,21.32
2017-03-13T23:08:34.337Z,21.33
2017-03-13T23:09:36.023Z,21.27
2017-03-13T23:10:37.670Z,21.24
2017-03-13T23:11:39.254Z,21.17
2017-03-13T23:12:40.911Z,21.15
2017-03-13T23:13:42.528Z,21.15
2017-03-13T23:14:44.186Z,21.22
2017-03-13T23:15:45.747Z,21.14
2017-03-13T23:16:47.424Z,21.18
2017-03-13T23:17:49.068Z,21.18
2017-03-13T23:18:50.634Z,21.24
2017-03-13T23:19:52.263Z,21.15
2017-03-13T23:20:53.985Z,21.17
2017-03-13T23:21:55.699Z,-15.92
2017-03-13T23:22:57.293Z,-15.92
2017-03-13T23:23:58.976Z,-15.92
2017-03-13T23:25:00.603Z,-15.92
2017-03-13T23:26:02.326Z,-15.92
2017-03-13T23:27:03.950Z,-15.92
2017-03-13T23:28:05.550Z,-15.92
2017-03-13T23:29:07.229Z,-15.92
2017-03-13T23:30:08.913Z,-15.92
2017-03-13T23:31:10.585Z,-15.92
2017-03-13T23:32:12.177Z,-15.92
2017-03-13T23:33:13.825Z,-15.92
2017-03-13T23:34:15.437Z,-15.92
2017-03-13T23:35:17.059Z,-15.92
2017-03-13T23:36:18.724Z,-15.92
2017-03-13T23:37:20.432Z,-15.92
2017-03-13T23:38:22.098Z,-15.92
2017-03-13T23:39:23.768Z,-15.92
2017-03-13T23:40:25.355Z,-15.92
2017-03-13T23:41:27.026Z,-15.92
2017-03-13T23:42:28.705Z,-15.92
2017-03-13T23:43:30.379Z,-15.92
2017-03-13T23:44:32.060Z,-15.92
2017-03-13T23:45:33.736Z,-15.92
2017-03-13T23:46:35.390Z,-15.92
2017-03-13T23:47:37.020Z,-15.92
2017-03-13T23:48:38.594Z,-15.92
2017-03-13T23:49:40.263Z,-15.92
2017-03-13T23:50:41.840Z,-15.92
2017-03-13T23:51:43.524Z,-15.92
2017-03-13T23:52:45.190Z,-15.92
2017-03-13T23:53:46.942Z,-15.92
2017-03-13T23:54:48.526Z,-15.92
2017-03-13T23:55:50.150Z,-15.92
2017-03-13T23:56:51.753Z,-15.92
2017-03-13T23:57:53.378Z,-15.92
2017-03-13T23:58:54.982Z,-15.92
2017-03-13T23:59:56.596Z,-15.92
